KMBS/MBS METAR and TAF weather

Enter ICAO airport designator
Station Type Date Time Source
KMBS METAR 2019/02/22 21:53 UTC NOAA

KMBS 222153Z 06004KT 10SM CLR 01/M05 A3044 RMK AO2 SLP317 T00111050


Station Type Date Time Source
KMBS Decoded METAR 2019/02/22 21:53 UTC NOAA

MBS INTERNATIONAL AIRPORT, MI, United States (KMBS) 43-32N 084-05W 202M
Feb 22, 2019 - 04:53 PM EST / 2019.02.22 2153 UTC
Wind: from the ENE (060 degrees) at 5 MPH (4 KT):0
Visibility: 10 mile(s):0
Sky conditions: clear
Temperature: 34.0 F (1.1 C)
Windchill: 30 F (-1 C):1
Dew Point: 23.0 F (-5.0 C)
Relative Humidity: 63%
Pressure (altimeter): 30.44 in. Hg (1030 hPa)
ob: KMBS 222153Z 06004KT 10SM CLR 01/M05 A3044 RMK AO2 SLP317 T00111050
cycle: 22

Station Type Date Time Source
KMBS TAF 2019/02/22 18:30 UTC NOAA

TAF KMBS 221727Z 2218/2318 VRB03KT P6SM SCT250
FM222000 16005KT P6SM BKN250
FM231000 10005KT P6SM OVC100
FM231500 12010KT P6SM OVC040


Example: see airport list